sensor_id;sensor_type;location;lat;lon;timestamp;temperature;humidity
18189;DHT22;9219;50.396;8.546;2022-12-07T00:06:44;3.00;99.90
18189;DHT22;9219;50.396;8.546;2022-12-07T00:09:13;3.40;99.90
18189;DHT22;9219;50.396;8.546;2022-12-07T00:11:42;3.60;99.90
18189;DHT22;9219;50.396;8.546;2022-12-07T00:14:12;3.60;99.90
18189;DHT22;9219;50.396;8.546;2022-12-07T00:16:40;3.70;99.90
18189;DHT22;9219;50.396;8.546;2022-12-07T00:19:10;3.20;99.90
18189;DHT22;9219;50.396;8.546;2022-12-07T00:21:38;3.30;99.90
18189;DHT22;9219;50.396;8.546;2022-12-07T00:27:02;3.50;99.90
18189;DHT22;9219;50.396;8.546;2022-12-07T00:29:29;3.30;99.90
18189;DHT22;9219;50.396;8.546;2022-12-07T00:31:57;3.40;99.90
18189;DHT22;9219;50.396;8.546;2022-12-07T00:34:25;3.60;99.90
18189;DHT22;9219;50.396;8.546;2022-12-07T00:36:52;3.70;99.90
18189;DHT22;9219;50.396;8.546;2022-12-07T00:39:19;3.50;99.90
18189;DHT22;9219;50.396;8.546;2022-12-07T00:41:47;3.40;99.90
18189;DHT22;9219;50.396;8.546;2022-12-07T00:50:21;3.70;99.90
18189;DHT22;9219;50.396;8.546;2022-12-07T00:52:48;3.70;99.90
18189;DHT22;9219;50.396;8.546;2022-12-07T00:55:16;3.90;99.90
18189;DHT22;9219;50.396;8.546;2022-12-07T00:57:43;3.70;99.90
18189;DHT22;9219;50.396;8.546;2022-12-07T01:00:12;3.70;99.90
18189;DHT22;9219;50.396;8.546;2022-12-07T01:02:39;3.60;99.90
18189;DHT22;9219;50.396;8.546;2022-12-07T01:05:08;3.40;99.90
18189;DHT22;9219;50.396;8.546;2022-12-07T01:07:36;3.30;99.90
18189;DHT22;9219;50.396;8.546;2022-12-07T01:15:24;3.50;99.90
18189;DHT22;9219;50.396;8.546;2022-12-07T01:17:51;3.50;99.90
18189;DHT22;9219;50.396;8.546;2022-12-07T01:20:19;3.40;99.90
18189;DHT22;9219;50.396;8.546;2022-12-07T01:22:48;3.60;99.90
18189;DHT22;9219;50.396;8.546;2022-12-07T01:25:16;3.60;99.90
18189;DHT22;9219;50.396;8.546;2022-12-07T01:27:44;3.50;99.90
18189;DHT22;9219;50.396;8.546;2022-12-07T01:30:12;3.40;99.90
18189;DHT22;9219;50.396;8.546;2022-12-07T01:32:41;3.30;99.90
18189;DHT22;9219;50.396;8.546;2022-12-07T01:40:13;3.20;99.90
18189;DHT22;9219;50.396;8.546;2022-12-07T01:42:41;3.70;99.90
18189;DHT22;9219;50.396;8.546;2022-12-07T01:45:37;3.60;99.90
18189;DHT22;9219;50.396;8.546;2022-12-07T01:48:06;3.40;99.90
18189;DHT22;9219;50.396;8.546;2022-12-07T01:50:38;3.40;99.90
18189;DHT22;9219;50.396;8.546;2022-12-07T01:53:09;3.40;99.90
18189;DHT22;9219;50.396;8.546;2022-12-07T01:55:41;3.40;99.90
18189;DHT22;9219;50.396;8.546;2022-12-07T01:58:09;3.50;99.90
18189;DHT22;9219;50.396;8.546;2022-12-07T02:05:44;3.20;99.90
18189;DHT22;9219;50.396;8.546;2022-12-07T02:08:12;3.00;99.90
18189;DHT22;9219;50.396;8.546;2022-12-07T02:10:40;2.90;99.90
18189;DHT22;9219;50.396;8.546;2022-12-07T02:13:11;2.90;99.90
18189;DHT22;9219;50.396;8.546;2022-12-07T02:18:41;3.20;99.90
18189;DHT22;9219;50.396;8.546;2022-12-07T02:21:14;3.40;99.90
18189;DHT22;9219;50.396;8.546;2022-12-07T02:32:24;3.10;99.90
18189;DHT22;9219;50.396;8.546;2022-12-07T02:35:01;3.10;99.90
18189;DHT22;9219;50.396;8.546;2022-12-07T02:37:38;3.00;99.90
18189;DHT22;9219;50.396;8.546;2022-12-07T02:40:12;3.00;99.90
18189;DHT22;9219;50.396;8.546;2022-12-07T02:42:45;2.90;99.90
18189;DHT22;9219;50.396;8.546;2022-12-07T02:45:15;2.80;99.90
18189;DHT22;9219;50.396;8.546;2022-12-07T02:47:48;2.90;99.90
18189;DHT22;9219;50.396;8.546;2022-12-07T02:55:38;3.10;99.90
18189;DHT22;9219;50.396;8.546;2022-12-07T02:58:20;3.00;99.90
18189;DHT22;9219;50.396;8.546;2022-12-07T03:00:58;3.00;99.90
18189;DHT22;9219;50.396;8.546;2022-12-07T03:03:35;3.10;99.90
18189;DHT22;9219;50.396;8.546;2022-12-07T03:06:13;3.50;99.90
18189;DHT22;9219;50.396;8.546;2022-12-07T03:08:49;3.40;99.90
18189;DHT22;9219;50.396;8.546;2022-12-07T03:11:24;3.50;99.90
18189;DHT22;9219;50.396;8.546;2022-12-07T03:19:00;3.40;99.90
18189;DHT22;9219;50.396;8.546;2022-12-07T03:21:33;3.40;99.90
18189;DHT22;9219;50.396;8.546;2022-12-07T03:24:05;3.30;99.90
18189;DHT22;9219;50.396;8.546;2022-12-07T03:26:37;3.10;99.90
18189;DHT22;9219;50.396;8.546;2022-12-07T03:29:09;3.10;99.90
18189;DHT22;9219;50.396;8.546;2022-12-07T03:31:42;3.00;99.90
18189;DHT22;9219;50.396;8.546;2022-12-07T03:34:16;3.10;99.90
18189;DHT22;9219;50.396;8.546;2022-12-07T03:44:10;2.90;99.90
18189;DHT22;9219;50.396;8.546;2022-12-07T03:46:43;3.30;99.90
18189;DHT22;9219;50.396;8.546;2022-12-07T03:49:16;3.20;99.90
18189;DHT22;9219;50.396;8.546;2022-12-07T03:51:51;2.90;99.90
18189;DHT22;9219;50.396;8.546;2022-12-07T03:54:24;2.80;99.90
18189;DHT22;9219;50.396;8.546;2022-12-07T03:56:53;2.80;99.90
18189;DHT22;9219;50.396;8.546;2022-12-07T03:59:22;2.90;99.90
18189;DHT22;9219;50.396;8.546;2022-12-07T04:01:53;3.10;99.90
18189;DHT22;9219;50.396;8.546;2022-12-07T04:09:26;2.90;99.90
18189;DHT22;9219;50.396;8.546;2022-12-07T04:11:53;2.80;99.90
18189;DHT22;9219;50.396;8.546;2022-12-07T04:14:21;2.90;99.90
18189;DHT22;9219;50.396;8.546;2022-12-07T04:16:49;3.00;99.90
18189;DHT22;9219;50.396;8.546;2022-12-07T04:19:20;2.90;99.90
18189;DHT22;9219;50.396;8.546;2022-12-07T04:21:47;2.90;99.90
18189;DHT22;9219;50.396;8.546;2022-12-07T04:24:15;2.90;99.90
18189;DHT22;9219;50.396;8.546;2022-12-07T04:26:44;3.10;99.90
18189;DHT22;9219;50.396;8.546;2022-12-07T04:34:19;3.10;99.90
18189;DHT22;9219;50.396;8.546;2022-12-07T04:36:47;3.20;99.90
18189;DHT22;9219;50.396;8.546;2022-12-07T04:39:19;3.30;99.90
18189;DHT22;9219;50.396;8.546;2022-12-07T04:41:47;3.20;99.90
18189;DHT22;9219;50.396;8.546;2022-12-07T04:44:15;3.20;99.90
18189;DHT22;9219;50.396;8.546;2022-12-07T04:46:43;3.00;99.90
18189;DHT22;9219;50.396;8.546;2022-12-07T04:49:11;3.10;99.90
18189;DHT22;9219;50.396;8.546;2022-12-07T04:57:30;3.10;99.90
18189;DHT22;9219;50.396;8.546;2022-12-07T04:59:58;3.00;99.90
18189;DHT22;9219;50.396;8.546;2022-12-07T05:02:26;3.10;99.90
18189;DHT22;9219;50.396;8.546;2022-12-07T05:04:54;3.30;99.90
18189;DHT22;9219;50.396;8.546;2022-12-07T05:07:22;3.30;99.90
18189;DHT22;9219;50.396;8.546;2022-12-07T05:09:49;3.30;99.90
18189;DHT22;9219;50.396;8.546;2022-12-07T05:12:16;3.20;99.90
18189;DHT22;9219;50.396;8.546;2022-12-07T05:22:43;3.30;99.90
18189;DHT22;9219;50.396;8.546;2022-12-07T05:25:10;3.10;99.90
18189;DHT22;9219;50.396;8.546;2022-12-07T05:27:37;3.10;99.90
18189;DHT22;9219;50.396;8.546;2022-12-07T05:30:06;3.10;99.90
18189;DHT22;9219;50.396;8.546;2022-12-07T05:32:33;3.10;99.90
18189;DHT22;9219;50.396;8.546;2022-12-07T05:35:00;3.10;99.90
18189;DHT22;9219;50.396;8.546;2022-12-07T05:37:28;3.20;99.90
18189;DHT22;9219;50.396;8.546;2022-12-07T05:45:59;3.20;99.90
18189;DHT22;9219;50.396;8.546;2022-12-07T05:48:27;3.30;99.90
18189;DHT22;9219;50.396;8.546;2022-12-07T05:50:54;3.00;99.90
18189;DHT22;9219;50.396;8.546;2022-12-07T05:53:21;3.00;99.90
18189;DHT22;9219;50.396;8.546;2022-12-07T05:55:49;3.10;99.90
18189;DHT22;9219;50.396;8.546;2022-12-07T05:58:16;3.20;99.90
18189;DHT22;9219;50.396;8.546;2022-12-07T06:01:11;3.10;99.90
18189;DHT22;9219;50.396;8.546;2022-12-07T06:03:39;3.10;99.90
18189;DHT22;9219;50.396;8.546;2022-12-07T06:11:35;2.90;99.90
18189;DHT22;9219;50.396;8.546;2022-12-07T06:14:20;2.90;99.90
18189;DHT22;9219;50.396;8.546;2022-12-07T06:16:48;2.90;99.90
18189;DHT22;9219;50.396;8.546;2022-12-07T06:19:15;2.80;99.90
18189;DHT22;9219;50.396;8.546;2022-12-07T06:21:43;2.90;99.90
18189;DHT22;9219;50.396;8.546;2022-12-07T06:24:11;3.00;99.90
18189;DHT22;9219;50.396;8.546;2022-12-07T06:26:40;2.90;99.90
18189;DHT22;9219;50.396;8.546;2022-12-07T06:29:09;3.20;99.90
18189;DHT22;9219;50.396;8.546;2022-12-07T06:36:41;3.20;99.90
18189;DHT22;9219;50.396;8.546;2022-12-07T06:39:10;3.00;99.90
18189;DHT22;9219;50.396;8.546;2022-12-07T06:41:38;3.00;99.90
18189;DHT22;9219;50.396;8.546;2022-12-07T06:44:06;3.20;99.90
18189;DHT22;9219;50.396;8.546;2022-12-07T06:46:34;3.20;99.90
18189;DHT22;9219;50.396;8.546;2022-12-07T06:49:03;3.10;99.90
18189;DHT22;9219;50.396;8.546;2022-12-07T06:51:31;3.10;99.90
18189;DHT22;9219;50.396;8.546;2022-12-07T06:53:59;3.10;99.90
18189;DHT22;9219;50.396;8.546;2022-12-07T07:04:38;3.10;99.90
18189;DHT22;9219;50.396;8.546;2022-12-07T07:07:06;3.20;99.90
18189;DHT22;9219;50.396;8.546;2022-12-07T07:09:33;3.30;99.90
18189;DHT22;9219;50.396;8.546;2022-12-07T07:12:04;3.40;99.90
18189;DHT22;9219;50.396;8.546;2022-12-07T07:14:32;3.20;99.90
18189;DHT22;9219;50.396;8.546;2022-12-07T07:17:00;3.20;99.90
18189;DHT22;9219;50.396;8.546;2022-12-07T07:19:28;3.10;99.90
18189;DHT22;9219;50.396;8.546;2022-12-07T07:21:56;3.20;99.90
18189;DHT22;9219;50.396;8.546;2022-12-07T07:29:54;3.00;99.90
18189;DHT22;9219;50.396;8.546;2022-12-07T07:32:21;3.00;99.90
18189;DHT22;9219;50.396;8.546;2022-12-07T07:34:49;3.10;99.90
18189;DHT22;9219;50.396;8.546;2022-12-07T07:37:17;3.10;99.90
18189;DHT22;9219;50.396;8.546;2022-12-07T07:39:47;3.10;99.90
18189;DHT22;9219;50.396;8.546;2022-12-07T07:42:15;3.10;99.90
18189;DHT22;9219;50.396;8.546;2022-12-07T07:44:43;3.10;99.90
18189;DHT22;9219;50.396;8.546;2022-12-07T07:47:12;3.10;99.90
18189;DHT22;9219;50.396;8.546;2022-12-07T07:54:49;3.20;99.90
18189;DHT22;9219;50.396;8.546;2022-12-07T07:57:20;3.30;99.90
18189;DHT22;9219;50.396;8.546;2022-12-07T07:59:48;3.30;99.90
18189;DHT22;9219;50.396;8.546;2022-12-07T08:02:17;3.50;99.90
18189;DHT22;9219;50.396;8.546;2022-12-07T08:04:46;3.50;99.90
18189;DHT22;9219;50.396;8.546;2022-12-07T08:07:15;3.40;99.90
18189;DHT22;9219;50.396;8.546;2022-12-07T08:09:42;3.40;99.90
18189;DHT22;9219;50.396;8.546;2022-12-07T08:12:10;3.40;99.90
18189;DHT22;9219;50.396;8.546;2022-12-07T08:19:45;3.20;99.90
18189;DHT22;9219;50.396;8.546;2022-12-07T08:22:13;3.20;99.90
18189;DHT22;9219;50.396;8.546;2022-12-07T08:24:41;3.30;99.90
18189;DHT22;9219;50.396;8.546;2022-12-07T08:27:08;3.20;99.90
18189;DHT22;9219;50.396;8.546;2022-12-07T08:29:36;3.10;99.90
18189;DHT22;9219;50.396;8.546;2022-12-07T08:32:03;3.10;99.90
18189;DHT22;9219;50.396;8.546;2022-12-07T08:34:35;3.20;99.90
18189;DHT22;9219;50.396;8.546;2022-12-07T08:44:32;3.20;99.90
18189;DHT22;9219;50.396;8.546;2022-12-07T08:47:02;3.30;99.90
18189;DHT22;9219;50.396;8.546;2022-12-07T08:49:34;3.30;99.90
18189;DHT22;9219;50.396;8.546;2022-12-07T08:52:04;3.40;99.90
18189;DHT22;9219;50.396;8.546;2022-12-07T08:54:33;3.50;99.90
18189;DHT22;9219;50.396;8.546;2022-12-07T08:57:05;3.50;99.90
18189;DHT22;9219;50.396;8.546;2022-12-07T08:59:35;3.50;99.90
18189;DHT22;9219;50.396;8.546;2022-12-07T09:06:58;3.60;99.90
18189;DHT22;9219;50.396;8.546;2022-12-07T09:09:31;3.40;99.90
18189;DHT22;9219;50.396;8.546;2022-12-07T09:11:58;3.40;99.90
18189;DHT22;9219;50.396;8.546;2022-12-07T09:14:26;3.60;99.90
18189;DHT22;9219;50.396;8.546;2022-12-07T09:16:53;3.40;99.90
18189;DHT22;9219;50.396;8.546;2022-12-07T09:19:21;3.60;99.90
18189;DHT22;9219;50.396;8.546;2022-12-07T09:21:49;3.80;99.90
18189;DHT22;9219;50.396;8.546;2022-12-07T09:24:17;3.80;99.90
18189;DHT22;9219;50.396;8.546;2022-12-07T09:31:50;3.80;99.90
18189;DHT22;9219;50.396;8.546;2022-12-07T09:34:18;4.20;99.90
18189;DHT22;9219;50.396;8.546;2022-12-07T09:36:46;4.00;99.90
18189;DHT22;9219;50.396;8.546;2022-12-07T09:39:13;3.90;99.90
18189;DHT22;9219;50.396;8.546;2022-12-07T09:41:43;3.90;99.90
18189;DHT22;9219;50.396;8.546;2022-12-07T09:44:14;3.80;99.90
18189;DHT22;9219;50.396;8.546;2022-12-07T09:46:43;3.60;99.90
18189;DHT22;9219;50.396;8.546;2022-12-07T09:49:16;3.40;99.90
18189;DHT22;9219;50.396;8.546;2022-12-07T09:51:46;3.60;99.90
18189;DHT22;9219;50.396;8.546;2022-12-07T09:54:45;3.70;99.90
18189;DHT22;9219;50.396;8.546;2022-12-07T09:57:14;3.60;99.90
18189;DHT22;9219;50.396;8.546;2022-12-07T09:59:42;3.70;99.90
18189;DHT22;9219;50.396;8.546;2022-12-07T10:02:28;3.60;99.90
18189;DHT22;9219;50.396;8.546;2022-12-07T10:04:58;3.90;99.90
18189;DHT22;9219;50.396;8.546;2022-12-07T10:07:27;3.80;99.90
18189;DHT22;9219;50.396;8.546;2022-12-07T10:09:58;4.20;99.90
18189;DHT22;9219;50.396;8.546;2022-12-07T10:17:35;4.10;99.90
18189;DHT22;9219;50.396;8.546;2022-12-07T10:20:16;4.20;99.90
18189;DHT22;9219;50.396;8.546;2022-12-07T10:22:58;4.00;99.90
18189;DHT22;9219;50.396;8.546;2022-12-07T10:25:28;3.90;99.90
18189;DHT22;9219;50.396;8.546;2022-12-07T10:28:00;3.90;99.90
18189;DHT22;9219;50.396;8.546;2022-12-07T10:30:29;4.00;99.90
18189;DHT22;9219;50.396;8.546;2022-12-07T10:33:00;4.00;99.90
18189;DHT22;9219;50.396;8.546;2022-12-07T10:41:18;4.20;99.90
18189;DHT22;9219;50.396;8.546;2022-12-07T10:43:48;3.70;99.90
18189;DHT22;9219;50.396;8.546;2022-12-07T10:46:49;3.60;99.90
18189;DHT22;9219;50.396;8.546;2022-12-07T10:52:38;3.80;99.90
18189;DHT22;9219;50.396;8.546;2022-12-07T10:55:16;3.60;99.90
18189;DHT22;9219;50.396;8.546;2022-12-07T10:58:00;3.70;99.90
18189;DHT22;9219;50.396;8.546;2022-12-07T11:05:38;3.90;99.90
18189;DHT22;9219;50.396;8.546;2022-12-07T11:08:15;4.00;99.90
18189;DHT22;9219;50.396;8.546;2022-12-07T11:10:55;3.90;99.90
18189;DHT22;9219;50.396;8.546;2022-12-07T11:13:29;4.10;99.90
18189;DHT22;9219;50.396;8.546;2022-12-07T11:16:12;4.30;99.90
18189;DHT22;9219;50.396;8.546;2022-12-07T11:18:51;4.10;99.90
18189;DHT22;9219;50.396;8.546;2022-12-07T11:21:29;4.10;99.90
18189;DHT22;9219;50.396;8.546;2022-12-07T11:29:33;4.10;99.90
18189;DHT22;9219;50.396;8.546;2022-12-07T11:32:14;4.10;99.90
18189;DHT22;9219;50.396;8.546;2022-12-07T11:34:52;4.00;99.90
18189;DHT22;9219;50.396;8.546;2022-12-07T11:37:27;4.30;99.90
18189;DHT22;9219;50.396;8.546;2022-12-07T11:40:11;4.50;99.90
18189;DHT22;9219;50.396;8.546;2022-12-07T11:42:46;4.30;99.90
18189;DHT22;9219;50.396;8.546;2022-12-07T11:45:23;4.00;99.90
18189;DHT22;9219;50.396;8.546;2022-12-07T11:47:55;4.00;99.90
18189;DHT22;9219;50.396;8.546;2022-12-07T11:55:32;4.10;99.90
18189;DHT22;9219;50.396;8.546;2022-12-07T11:58:11;4.20;99.90
18189;DHT22;9219;50.396;8.546;2022-12-07T12:00:43;4.00;99.90
18189;DHT22;9219;50.396;8.546;2022-12-07T12:03:17;4.00;99.90
18189;DHT22;9219;50.396;8.546;2022-12-07T12:05:58;4.10;99.90
18189;DHT22;9219;50.396;8.546;2022-12-07T12:08:29;4.20;99.90
18189;DHT22;9219;50.396;8.546;2022-12-07T12:11:30;4.20;99.90
18189;DHT22;9219;50.396;8.546;2022-12-07T12:19:25;4.10;99.90
18189;DHT22;9219;50.396;8.546;2022-12-07T12:22:02;4.00;99.90
18189;DHT22;9219;50.396;8.546;2022-12-07T12:24:33;4.20;99.90
18189;DHT22;9219;50.396;8.546;2022-12-07T12:27:05;4.30;99.90
18189;DHT22;9219;50.396;8.546;2022-12-07T12:29:36;4.40;99.90
18189;DHT22;9219;50.396;8.546;2022-12-07T12:32:07;4.50;99.90
18189;DHT22;9219;50.396;8.546;2022-12-07T12:34:59;4.40;99.90
18189;DHT22;9219;50.396;8.546;2022-12-07T12:42:49;4.60;99.90
18189;DHT22;9219;50.396;8.546;2022-12-07T12:45:19;5.10;99.90
18189;DHT22;9219;50.396;8.546;2022-12-07T12:47:58;4.90;99.90
18189;DHT22;9219;50.396;8.546;2022-12-07T12:50:28;4.70;99.90
18189;DHT22;9219;50.396;8.546;2022-12-07T12:53:15;4.90;99.90
18189;DHT22;9219;50.396;8.546;2022-12-07T12:56:11;4.90;99.90
18189;DHT22;9219;50.396;8.546;2022-12-07T12:58:44;4.90;99.90
18189;DHT22;9219;50.396;8.546;2022-12-07T13:08:59;5.20;99.90
18189;DHT22;9219;50.396;8.546;2022-12-07T13:11:31;5.70;99.90
18189;DHT22;9219;50.396;8.546;2022-12-07T13:17:00;5.60;99.90
18189;DHT22;9219;50.396;8.546;2022-12-07T13:19:55;5.60;99.90
18189;DHT22;9219;50.396;8.546;2022-12-07T13:22:42;5.30;99.90
18189;DHT22;9219;50.396;8.546;2022-12-07T13:25:19;5.00;99.90
18189;DHT22;9219;50.396;8.546;2022-12-07T13:32:55;4.40;99.90
18189;DHT22;9219;50.396;8.546;2022-12-07T13:35:34;4.20;99.90
18189;DHT22;9219;50.396;8.546;2022-12-07T13:38:13;4.30;99.90
18189;DHT22;9219;50.396;8.546;2022-12-07T13:40:42;4.20;99.90
18189;DHT22;9219;50.396;8.546;2022-12-07T13:43:26;4.10;99.90
18189;DHT22;9219;50.396;8.546;2022-12-07T13:45:56;4.00;99.90
18189;DHT22;9219;50.396;8.546;2022-12-07T13:48:31;4.30;99.90
18189;DHT22;9219;50.396;8.546;2022-12-07T13:56:04;4.60;99.90
18189;DHT22;9219;50.396;8.546;2022-12-07T13:58:33;4.80;99.90
18189;DHT22;9219;50.396;8.546;2022-12-07T14:01:01;4.70;99.90
18189;DHT22;9219;50.396;8.546;2022-12-07T14:03:31;4.40;99.90
18189;DHT22;9219;50.396;8.546;2022-12-07T14:06:14;4.30;99.90
18189;DHT22;9219;50.396;8.546;2022-12-07T14:08:43;4.10;99.90
18189;DHT22;9219;50.396;8.546;2022-12-07T14:11:16;4.40;99.90
18189;DHT22;9219;50.396;8.546;2022-12-07T14:17:09;4.50;99.90
18189;DHT22;9219;50.396;8.546;2022-12-07T14:19:47;4.30;99.90
18189;DHT22;9219;50.396;8.546;2022-12-07T14:22:28;4.40;99.90
18189;DHT22;9219;50.396;8.546;2022-12-07T14:25:09;4.30;99.90
18189;DHT22;9219;50.396;8.546;2022-12-07T14:27:39;4.20;99.90
18189;DHT22;9219;50.396;8.546;2022-12-07T14:30:17;4.00;99.90
18189;DHT22;9219;50.396;8.546;2022-12-07T14:32:51;3.90;99.90
18189;DHT22;9219;50.396;8.546;2022-12-07T14:42:30;4.00;99.90
18189;DHT22;9219;50.396;8.546;2022-12-07T14:45:00;4.20;99.90
18189;DHT22;9219;50.396;8.546;2022-12-07T14:47:28;4.20;99.90
18189;DHT22;9219;50.396;8.546;2022-12-07T14:50:19;4.40;99.90
18189;DHT22;9219;50.396;8.546;2022-12-07T14:52:55;4.50;99.90
18189;DHT22;9219;50.396;8.546;2022-12-07T14:55:46;4.40;99.90
18189;DHT22;9219;50.396;8.546;2022-12-07T14:58:16;4.20;99.90
18189;DHT22;9219;50.396;8.546;2022-12-07T15:03:24;4.10;99.90
18189;DHT22;9219;50.396;8.546;2022-12-07T15:05:52;3.70;99.90
18189;DHT22;9219;50.396;8.546;2022-12-07T15:08:20;3.70;99.90
18189;DHT22;9219;50.396;8.546;2022-12-07T15:10:47;3.60;99.90
18189;DHT22;9219;50.396;8.546;2022-12-07T15:13:15;3.80;99.90
18189;DHT22;9219;50.396;8.546;2022-12-07T15:16:00;3.90;99.90
18189;DHT22;9219;50.396;8.546;2022-12-07T15:18:29;3.90;99.90
18189;DHT22;9219;50.396;8.546;2022-12-07T15:20:57;3.80;99.90
18189;DHT22;9219;50.396;8.546;2022-12-07T15:23:25;3.80;99.90
18189;DHT22;9219;50.396;8.546;2022-12-07T15:31:23;3.70;99.90
18189;DHT22;9219;50.396;8.546;2022-12-07T15:34:10;3.80;99.90
18189;DHT22;9219;50.396;8.546;2022-12-07T15:36:38;3.80;99.90
18189;DHT22;9219;50.396;8.546;2022-12-07T15:39:08;3.90;99.90
18189;DHT22;9219;50.396;8.546;2022-12-07T15:41:41;4.10;99.90
18189;DHT22;9219;50.396;8.546;2022-12-07T15:44:12;3.60;99.90
18189;DHT22;9219;50.396;8.546;2022-12-07T15:47:00;3.70;99.90
18189;DHT22;9219;50.396;8.546;2022-12-07T15:52:12;3.60;99.90
18189;DHT22;9219;50.396;8.546;2022-12-07T15:54:43;3.50;99.90
18189;DHT22;9219;50.396;8.546;2022-12-07T15:57:11;3.50;99.90
18189;DHT22;9219;50.396;8.546;2022-12-07T15:59:40;3.50;99.90
18189;DHT22;9219;50.396;8.546;2022-12-07T16:02:08;3.90;99.90
18189;DHT22;9219;50.396;8.546;2022-12-07T16:04:37;4.10;99.90
18189;DHT22;9219;50.396;8.546;2022-12-07T16:07:04;4.20;99.90
18189;DHT22;9219;50.396;8.546;2022-12-07T16:09:34;4.20;99.90
18189;DHT22;9219;50.396;8.546;2022-12-07T16:17:57;4.90;99.90
18189;DHT22;9219;50.396;8.546;2022-12-07T16:20:29;4.90;99.90
18189;DHT22;9219;50.396;8.546;2022-12-07T16:22:59;4.80;99.90
18189;DHT22;9219;50.396;8.546;2022-12-07T16:25:30;4.70;99.90
18189;DHT22;9219;50.396;8.546;2022-12-07T16:28:00;4.60;99.90
18189;DHT22;9219;50.396;8.546;2022-12-07T16:30:34;4.70;99.90
18189;DHT22;9219;50.396;8.546;2022-12-07T16:33:06;4.50;99.90
18189;DHT22;9219;50.396;8.546;2022-12-07T16:41:13;4.50;99.90
18189;DHT22;9219;50.396;8.546;2022-12-07T16:43:41;4.30;99.90
18189;DHT22;9219;50.396;8.546;2022-12-07T16:46:08;4.70;99.90
18189;DHT22;9219;50.396;8.546;2022-12-07T16:48:37;4.60;99.90
18189;DHT22;9219;50.396;8.546;2022-12-07T16:51:06;4.40;99.90
18189;DHT22;9219;50.396;8.546;2022-12-07T16:53:36;4.40;99.90
18189;DHT22;9219;50.396;8.546;2022-12-07T16:56:05;4.70;99.90
18189;DHT22;9219;50.396;8.546;2022-12-07T16:58:39;4.70;99.90
18189;DHT22;9219;50.396;8.546;2022-12-07T17:06:15;4.80;99.90
18189;DHT22;9219;50.396;8.546;2022-12-07T17:08:45;4.70;99.90
18189;DHT22;9219;50.396;8.546;2022-12-07T17:11:15;4.20;99.90
18189;DHT22;9219;50.396;8.546;2022-12-07T17:13:45;4.10;99.90
18189;DHT22;9219;50.396;8.546;2022-12-07T17:16:32;4.30;99.90
18189;DHT22;9219;50.396;8.546;2022-12-07T17:19:01;4.40;99.90
18189;DHT22;9219;50.396;8.546;2022-12-07T17:21:33;4.30;99.90
18189;DHT22;9219;50.396;8.546;2022-12-07T17:30:52;4.80;99.90
18189;DHT22;9219;50.396;8.546;2022-12-07T17:33:23;4.90;99.90
18189;DHT22;9219;50.396;8.546;2022-12-07T17:35:53;5.00;99.90
18189;DHT22;9219;50.396;8.546;2022-12-07T17:38:23;4.70;99.90
18189;DHT22;9219;50.396;8.546;2022-12-07T17:40:55;4.80;99.90
18189;DHT22;9219;50.396;8.546;2022-12-07T17:43:23;5.00;99.90
18189;DHT22;9219;50.396;8.546;2022-12-07T17:45:53;5.20;99.90
18189;DHT22;9219;50.396;8.546;2022-12-07T17:54:13;5.00;99.90
18189;DHT22;9219;50.396;8.546;2022-12-07T17:56:44;4.80;99.90
18189;DHT22;9219;50.396;8.546;2022-12-07T17:59:14;4.80;99.90
18189;DHT22;9219;50.396;8.546;2022-12-07T18:01:44;5.10;99.90
18189;DHT22;9219;50.396;8.546;2022-12-07T18:04:14;5.00;99.90
18189;DHT22;9219;50.396;8.546;2022-12-07T18:06:44;4.80;99.90
18189;DHT22;9219;50.396;8.546;2022-12-07T18:09:20;4.70;99.90
18189;DHT22;9219;50.396;8.546;2022-12-07T18:19:11;4.80;99.90
18189;DHT22;9219;50.396;8.546;2022-12-07T18:21:40;5.00;99.90
18189;DHT22;9219;50.396;8.546;2022-12-07T18:24:10;4.90;99.90
18189;DHT22;9219;50.396;8.546;2022-12-07T18:26:40;4.70;99.90
18189;DHT22;9219;50.396;8.546;2022-12-07T18:29:12;4.60;99.90
18189;DHT22;9219;50.396;8.546;2022-12-07T18:31:44;4.70;99.90
18189;DHT22;9219;50.396;8.546;2022-12-07T18:34:18;4.70;99.90
18189;DHT22;9219;50.396;8.546;2022-12-07T18:40:13;4.70;99.90
18189;DHT22;9219;50.396;8.546;2022-12-07T18:42:42;4.80;99.90
18189;DHT22;9219;50.396;8.546;2022-12-07T18:45:14;4.80;99.90
18189;DHT22;9219;50.396;8.546;2022-12-07T18:47:44;4.80;99.90
18189;DHT22;9219;50.396;8.546;2022-12-07T18:50:14;4.90;99.90
18189;DHT22;9219;50.396;8.546;2022-12-07T18:52:45;4.60;99.90
18189;DHT22;9219;50.396;8.546;2022-12-07T18:55:17;4.70;99.90
18189;DHT22;9219;50.396;8.546;2022-12-07T18:57:49;4.70;99.90
18189;DHT22;9219;50.396;8.546;2022-12-07T19:05:29;4.60;99.90
18189;DHT22;9219;50.396;8.546;2022-12-07T19:07:58;4.50;99.90
18189;DHT22;9219;50.396;8.546;2022-12-07T19:10:29;4.80;99.90
18189;DHT22;9219;50.396;8.546;2022-12-07T19:12:59;4.70;99.90
18189;DHT22;9219;50.396;8.546;2022-12-07T19:15:29;4.40;99.90
18189;DHT22;9219;50.396;8.546;2022-12-07T19:17:57;4.50;99.90
18189;DHT22;9219;50.396;8.546;2022-12-07T19:20:26;4.50;99.90
18189;DHT22;9219;50.396;8.546;2022-12-07T19:27:58;4.50;99.90
18189;DHT22;9219;50.396;8.546;2022-12-07T19:30:27;4.50;99.90
18189;DHT22;9219;50.396;8.546;2022-12-07T19:32:55;4.50;99.90
18189;DHT22;9219;50.396;8.546;2022-12-07T19:35:24;4.70;99.90
18189;DHT22;9219;50.396;8.546;2022-12-07T19:37:53;4.80;99.90
18189;DHT22;9219;50.396;8.546;2022-12-07T19:40:25;4.90;99.90
18189;DHT22;9219;50.396;8.546;2022-12-07T19:42:52;4.60;99.90
18189;DHT22;9219;50.396;8.546;2022-12-07T19:50:28;4.80;99.90
18189;DHT22;9219;50.396;8.546;2022-12-07T19:53:00;4.90;99.90
18189;DHT22;9219;50.396;8.546;2022-12-07T19:55:28;5.10;99.90
18189;DHT22;9219;50.396;8.546;2022-12-07T19:57:56;5.00;99.90
18189;DHT22;9219;50.396;8.546;2022-12-07T20:00:24;5.10;99.90
18189;DHT22;9219;50.396;8.546;2022-12-07T20:02:53;5.00;99.90
18189;DHT22;9219;50.396;8.546;2022-12-07T20:05:21;4.80;99.90
18189;DHT22;9219;50.396;8.546;2022-12-07T20:13:01;4.80;99.90
18189;DHT22;9219;50.396;8.546;2022-12-07T20:15:48;4.70;99.90
18189;DHT22;9219;50.396;8.546;2022-12-07T20:18:17;4.60;99.90
18189;DHT22;9219;50.396;8.546;2022-12-07T20:20:53;4.80;99.90
18189;DHT22;9219;50.396;8.546;2022-12-07T20:23:23;4.80;99.90
18189;DHT22;9219;50.396;8.546;2022-12-07T20:26:01;4.90;99.90
18189;DHT22;9219;50.396;8.546;2022-12-07T20:28:33;4.50;99.90
18189;DHT22;9219;50.396;8.546;2022-12-07T20:36:15;4.70;99.90
18189;DHT22;9219;50.396;8.546;2022-12-07T20:38:44;4.50;99.90
18189;DHT22;9219;50.396;8.546;2022-12-07T20:41:19;4.60;99.90
18189;DHT22;9219;50.396;8.546;2022-12-07T20:44:05;4.60;99.90
18189;DHT22;9219;50.396;8.546;2022-12-07T20:46:34;4.20;99.90
18189;DHT22;9219;50.396;8.546;2022-12-07T20:49:03;4.40;99.90
18189;DHT22;9219;50.396;8.546;2022-12-07T20:51:33;4.60;99.90
18189;DHT22;9219;50.396;8.546;2022-12-07T21:01:25;4.90;99.90
18189;DHT22;9219;50.396;8.546;2022-12-07T21:03:54;4.70;99.90
18189;DHT22;9219;50.396;8.546;2022-12-07T21:06:24;4.60;99.90
18189;DHT22;9219;50.396;8.546;2022-12-07T21:08:55;4.30;99.90
18189;DHT22;9219;50.396;8.546;2022-12-07T21:11:29;4.40;99.90
18189;DHT22;9219;50.396;8.546;2022-12-07T21:13:58;4.50;99.90
18189;DHT22;9219;50.396;8.546;2022-12-07T21:16:28;4.30;99.90
18189;DHT22;9219;50.396;8.546;2022-12-07T21:18:58;4.00;99.90
18189;DHT22;9219;50.396;8.546;2022-12-07T21:27:20;3.90;99.90
18189;DHT22;9219;50.396;8.546;2022-12-07T21:29:47;3.90;99.90
18189;DHT22;9219;50.396;8.546;2022-12-07T21:32:20;3.90;99.90